Portada
METAR-TAF:

METAR-TAF

Aeroports :

Otis Air National Guard Base

Falmouth, Massachusetts, Estats Units d'Amèrica

latitud: 41-39N, longitud: 070-31W, altitud: 40 m

Observació

L'informe es va fer fa 50 minuts, a les 23:45 UTC
Vent 11 kt del Oest/Nord-Oest
Temperatura 0°C
Humitat 40%
Pressió 1004 hPa
Visibilitat: 16.1 km
Cel clar

METAR: KFMH 042345Z 29011KT 10SM CLR 00/M12 A2965

Hora: 19:35 (00:35 UTC)

Pronòstic

L'informe es va fer fa 1 hora i 14 minuts, a les 23:21 UTC
Pronòstic vàlid del 05 a les 00 UTC al 05 a les 24 UTC
Vent 14 kt del Oest/Nord-Oest
Visibilitat: 10 km
Cel clar
A partir de les 05 a les 1200 UTC
Vent 9 kt del Oest/Nord-Oest
Visibilitat: 10 km
Escasses núvols a una alçada de 10000 ft
A partir de les 05 a les 1400 UTC
Vent 10 kt del Oest/Nord-Oest amb ràfegues de 22 kt
Visibilitat: 10 km
Escasses núvols a una alçada de 25000 ft

TAF: KFMH 042321Z 0500/0524 29014KT P6SM SKC FM051200 30009KT P6SM FEW100 FM051400 30010G22KT P6SM FEW250

Observacions i pronòstics meteorològics de més de 4000 aeroports (METAR i TAF).

Les estacions disponibles són els punts grocs i vermells al mapa.

Posi el ratolí al punt desitjat per veure el nom de l'estació.

Feu clic per veure les observacions i els pronòstics meteorològics.

Per canviar el mapa: feu clic els botons verds amb una creu de color negre per apropar; al botó verd amb un guió per allunyar la imatge; o en les fletxes verdes per a mapes adjacents.


METAR-TAF: